createdAt,value
2022-11-10T00:01:09.862Z,3.40
2022-11-10T00:03:38.587Z,3.67
2022-11-10T00:06:06.808Z,3.80
2022-11-10T00:08:34.698Z,3.83
2022-11-10T00:11:06.992Z,3.00
2022-11-10T00:13:56.486Z,3.50
2022-11-10T00:16:42.175Z,3.37
2022-11-10T00:19:08.739Z,3.57
2022-11-10T00:21:36.720Z,3.20
2022-11-10T00:24:03.863Z,3.33
2022-11-10T00:26:30.705Z,2.77
2022-11-10T00:28:57.228Z,2.40
2022-11-10T00:31:23.720Z,3.43
2022-11-10T00:33:52.472Z,3.03
2022-11-10T00:36:19.192Z,2.93
2022-11-10T00:38:45.731Z,2.33
2022-11-10T00:41:13.016Z,2.73
2022-11-10T00:43:39.555Z,2.60
2022-11-10T00:46:06.725Z,3.10
2022-11-10T00:48:33.317Z,2.57
2022-11-10T00:51:00.446Z,2.60
2022-11-10T00:53:27.146Z,2.60
2022-11-10T00:55:53.766Z,2.40
2022-11-10T00:58:20.326Z,2.57
2022-11-10T01:00:46.899Z,2.40
2022-11-10T01:03:15.772Z,2.13
2022-11-10T01:05:42.791Z,2.37
2022-11-10T01:08:09.960Z,2.83
2022-11-10T01:10:36.528Z,2.80
2022-11-10T01:13:03.102Z,2.67
2022-11-10T01:15:29.580Z,2.63
2022-11-10T01:17:56.740Z,2.50
2022-11-10T01:20:24.735Z,2.67
2022-11-10T01:22:51.421Z,3.03
2022-11-10T01:25:18.365Z,2.33
2022-11-10T01:27:45.162Z,2.60
2022-11-10T01:30:12.271Z,2.50
2022-11-10T01:32:38.820Z,2.90
2022-11-10T01:35:05.992Z,2.83
2022-11-10T01:37:32.466Z,2.43
2022-11-10T01:39:59.103Z,2.40
2022-11-10T01:42:28.497Z,2.57
2022-11-10T01:45:23.035Z,2.77
2022-11-10T01:47:56.379Z,2.40
2022-11-10T01:50:26.134Z,2.80
2022-11-10T01:52:55.741Z,2.23
2022-11-10T01:55:24.467Z,2.40
2022-11-10T01:57:51.642Z,2.50
2022-11-10T02:00:19.111Z,2.63
2022-11-10T02:03:08.835Z,2.63
2022-11-10T02:05:36.755Z,2.43
2022-11-10T02:08:05.521Z,2.70
2022-11-10T02:10:32.006Z,2.93
2022-11-10T02:12:58.790Z,2.80
2022-11-10T02:15:25.825Z,2.37
2022-11-10T02:17:52.291Z,2.63
2022-11-10T02:20:20.468Z,2.40
2022-11-10T02:22:47.108Z,2.97
2022-11-10T02:25:17.825Z,2.57
2022-11-10T02:27:44.372Z,2.80
2022-11-10T02:30:11.968Z,2.03
2022-11-10T02:32:38.550Z,2.10
2022-11-10T02:35:05.363Z,2.43
2022-11-10T02:37:31.917Z,2.10
2022-11-10T02:39:58.822Z,2.80
2022-11-10T02:42:25.301Z,2.60
2022-11-10T02:44:51.811Z,2.80
2022-11-10T02:47:18.869Z,2.27
2022-11-10T02:49:45.429Z,3.10
2022-11-10T02:52:12.017Z,2.50
2022-11-10T02:54:38.584Z,3.03
2022-11-10T02:57:05.079Z,2.77
2022-11-10T02:59:31.581Z,2.73
2022-11-10T03:01:58.052Z,2.40
2022-11-10T03:04:24.831Z,2.77
2022-11-10T03:06:52.124Z,2.03
2022-11-10T03:09:18.658Z,3.10
2022-11-10T03:11:45.835Z,2.57
2022-11-10T03:14:12.299Z,2.73
2022-11-10T03:16:38.780Z,2.30
2022-11-10T03:19:05.354Z,2.70
2022-11-10T03:21:31.814Z,2.43
2022-11-10T03:23:58.303Z,2.73
2022-11-10T03:26:24.818Z,2.60
2022-11-10T03:28:51.476Z,2.80
2022-11-10T03:31:17.997Z,2.80
2022-11-10T03:33:44.477Z,2.70
2022-11-10T03:36:11.164Z,2.40
2022-11-10T03:38:37.863Z,2.33
2022-11-10T03:41:18.943Z,2.50
2022-11-10T03:43:46.901Z,2.27
2022-11-10T03:46:13.396Z,2.37
2022-11-10T03:48:39.915Z,3.03
2022-11-10T03:51:06.674Z,2.90
2022-11-10T03:53:33.194Z,3.00
2022-11-10T03:56:05.102Z,2.63
2022-11-10T03:58:32.174Z,2.37
2022-11-10T04:00:59.120Z,3.10
2022-11-10T04:03:26.106Z,2.77
2022-11-10T04:06:11.124Z,2.93
2022-11-10T04:08:56.579Z,2.90
2022-11-10T04:11:41.489Z,2.67
2022-11-10T04:14:27.424Z,3.43
2022-11-10T04:16:54.060Z,3.00
2022-11-10T04:19:20.644Z,2.57
2022-11-10T04:21:47.569Z,3.63
2022-11-10T04:24:14.407Z,3.13
2022-11-10T04:26:42.862Z,2.83
2022-11-10T04:29:12.022Z,2.43
2022-11-10T04:31:40.989Z,2.67
2022-11-10T04:34:10.266Z,3.07
2022-11-10T04:36:39.462Z,3.70
2022-11-10T04:39:07.939Z,3.10
2022-11-10T04:41:35.008Z,3.13
2022-11-10T04:44:02.270Z,3.13
2022-11-10T04:46:42.703Z,3.03
2022-11-10T04:49:11.001Z,3.10
2022-11-10T04:51:39.141Z,2.70
2022-11-10T04:54:07.395Z,2.80
2022-11-10T04:56:35.014Z,3.17
2022-11-10T04:59:02.368Z,3.17
2022-11-10T05:01:28.985Z,2.70
2022-11-10T05:03:55.962Z,3.10
2022-11-10T05:06:22.569Z,2.70
2022-11-10T05:08:49.820Z,2.90
2022-11-10T05:11:16.815Z,3.13
2022-11-10T05:13:44.238Z,2.63
2022-11-10T05:16:11.743Z,2.60
2022-11-10T05:18:38.395Z,2.77
2022-11-10T05:21:05.095Z,2.70
2022-11-10T05:23:44.059Z,2.87
2022-11-10T05:26:17.920Z,2.93
2022-11-10T05:28:45.982Z,3.03
2022-11-10T05:31:13.424Z,2.90
2022-11-10T05:33:40.376Z,3.20
2022-11-10T05:36:07.930Z,2.97
2022-11-10T05:38:38.880Z,3.53
2022-11-10T05:41:08.614Z,3.47
2022-11-10T05:43:35.524Z,2.73
2022-11-10T05:46:02.418Z,2.83
2022-11-10T05:48:28.940Z,2.83
2022-11-10T05:50:55.476Z,2.47
2022-11-10T05:53:22.350Z,3.30
2022-11-10T05:55:49.300Z,2.80
2022-11-10T05:58:15.809Z,2.70
2022-11-10T06:00:42.359Z,2.73
2022-11-10T06:03:20.097Z,2.70
2022-11-10T06:05:47.504Z,2.60
2022-11-10T06:08:14.486Z,3.50
2022-11-10T06:10:41.098Z,2.70
2022-11-10T06:13:07.619Z,2.87
2022-11-10T06:15:34.230Z,2.67
2022-11-10T06:18:00.776Z,2.90
2022-11-10T06:20:27.671Z,3.80
2022-11-10T06:23:01.936Z,2.73
2022-11-10T06:25:30.028Z,3.60
2022-11-10T06:27:57.413Z,3.07
2022-11-10T06:30:25.561Z,3.37
2022-11-10T06:32:52.343Z,3.23
2022-11-10T06:35:19.521Z,3.73
2022-11-10T06:37:46.375Z,3.03
2022-11-10T06:40:16.507Z,3.53
2022-11-10T06:42:43.030Z,3.17
2022-11-10T06:45:09.834Z,3.20
2022-11-10T06:47:36.358Z,3.90
2022-11-10T06:50:03.172Z,3.57
2022-11-10T06:52:31.592Z,3.33
2022-11-10T06:54:59.011Z,4.40
2022-11-10T06:57:25.516Z,2.90
2022-11-10T06:59:52.039Z,3.37
2022-11-10T07:02:18.549Z,3.40
2022-11-10T07:04:45.104Z,3.50
2022-11-10T07:07:12.204Z,3.00
2022-11-10T07:09:38.843Z,3.90
2022-11-10T07:12:05.775Z,3.07
2022-11-10T07:14:32.420Z,2.93
2022-11-10T07:16:58.954Z,3.60
2022-11-10T07:19:25.403Z,3.30
2022-11-10T07:21:51.970Z,3.70
2022-11-10T07:24:18.435Z,4.27
2022-11-10T07:26:44.943Z,3.53
2022-11-10T07:29:11.554Z,3.37
2022-11-10T07:31:37.997Z,3.70
2022-11-10T07:34:04.931Z,3.90
2022-11-10T07:36:31.423Z,4.10
2022-11-10T07:38:57.968Z,3.37
2022-11-10T07:41:24.481Z,3.83
2022-11-10T07:43:50.977Z,4.80
2022-11-10T07:46:17.466Z,4.80
2022-11-10T07:48:43.976Z,5.30
2022-11-10T07:51:10.444Z,5.60
2022-11-10T07:53:37.137Z,5.30
2022-11-10T07:56:03.627Z,5.00
2022-11-10T07:58:31.067Z,4.53
2022-11-10T08:00:57.709Z,5.17
2022-11-10T08:03:24.476Z,5.77
2022-11-10T08:05:51.937Z,5.73
2022-11-10T08:08:19.138Z,6.70
2022-11-10T08:10:45.640Z,5.47
2022-11-10T08:13:13.465Z,4.77
2022-11-10T08:15:41.193Z,4.53
2022-11-10T08:18:16.047Z,6.63
2022-11-10T08:20:43.156Z,4.27
2022-11-10T08:23:10.003Z,5.20
2022-11-10T08:25:37.890Z,5.10
2022-11-10T08:28:06.176Z,5.17
2022-11-10T08:30:33.981Z,5.07
2022-11-10T08:33:02.204Z,5.47
2022-11-10T08:35:30.775Z,5.73
2022-11-10T08:37:57.698Z,6.40
2022-11-10T08:40:27.801Z,4.83
2022-11-10T08:43:02.750Z,4.80
2022-11-10T08:45:29.511Z,4.53
2022-11-10T08:48:00.198Z,5.07
2022-11-10T08:50:27.643Z,4.40
2022-11-10T08:52:54.505Z,4.67
2022-11-10T08:55:21.576Z,4.27
2022-11-10T08:57:48.632Z,4.17
2022-11-10T09:00:16.445Z,4.17
2022-11-10T09:02:43.178Z,4.00
2022-11-10T09:05:10.993Z,4.20
2022-11-10T09:07:48.951Z,4.33
2022-11-10T09:10:16.179Z,4.07
2022-11-10T09:12:43.316Z,4.90
2022-11-10T09:15:11.140Z,4.97
2022-11-10T09:17:41.518Z,5.03
2022-11-10T09:20:09.812Z,5.30
2022-11-10T09:22:36.730Z,5.23
2022-11-10T09:25:04.323Z,5.43
2022-11-10T09:27:31.475Z,5.80
2022-11-10T09:29:57.985Z,6.00
2022-11-10T09:32:24.809Z,5.60
2022-11-10T09:34:53.130Z,5.23
2022-11-10T09:37:19.988Z,5.17
2022-11-10T09:39:46.504Z,4.90
2022-11-10T09:42:37.008Z,3.90
2022-11-10T09:45:11.207Z,4.27
2022-11-10T09:48:15.132Z,4.60
2022-11-10T09:50:48.226Z,4.60
2022-11-10T09:53:23.734Z,4.00
2022-11-10T09:55:55.022Z,3.87
2022-11-10T09:58:25.496Z,3.57
2022-11-10T10:01:22.740Z,3.73
2022-11-10T10:03:59.381Z,4.50
2022-11-10T10:06:33.914Z,4.37
2022-11-10T10:09:22.620Z,4.03
2022-11-10T10:12:03.879Z,4.60
2022-11-10T10:14:50.934Z,4.30
2022-11-10T10:17:37.079Z,4.33
2022-11-10T10:20:28.400Z,4.17
2022-11-10T10:23:01.291Z,4.90
2022-11-10T10:25:28.497Z,5.10
2022-11-10T10:28:20.065Z,4.83
2022-11-10T10:30:46.916Z,4.63
2022-11-10T10:33:19.862Z,4.60
2022-11-10T10:35:48.981Z,4.90
2022-11-10T10:38:22.780Z,4.30
2022-11-10T10:40:51.659Z,4.47
2022-11-10T10:43:18.578Z,4.97
2022-11-10T10:45:45.187Z,4.80
2022-11-10T10:48:27.073Z,4.40
2022-11-10T10:50:54.100Z,4.63
2022-11-10T10:53:26.113Z,4.57
2022-11-10T10:56:15.791Z,4.77
2022-11-10T10:59:00.754Z,5.07
2022-11-10T11:01:31.545Z,4.70
2022-11-10T11:03:59.495Z,4.10
2022-11-10T11:06:33.970Z,4.43
2022-11-10T11:09:22.035Z,3.67
2022-11-10T11:12:05.334Z,3.17
2022-11-10T11:14:32.687Z,3.37
2022-11-10T11:17:17.868Z,3.17
2022-11-10T11:19:44.533Z,2.73
2022-11-10T11:22:23.492Z,2.80
2022-11-10T11:25:21.264Z,3.03
2022-11-10T11:28:06.287Z,2.87
2022-11-10T11:30:41.699Z,3.00
2022-11-10T11:33:17.306Z,2.70
2022-11-10T11:35:57.549Z,3.23
2022-11-10T11:38:49.326Z,3.73
2022-11-10T11:41:44.301Z,3.73
2022-11-10T11:44:26.368Z,3.50
2022-11-10T11:47:13.587Z,3.70
2022-11-10T11:50:16.560Z,3.60
2022-11-10T11:52:43.029Z,3.70
2022-11-10T11:55:19.930Z,3.53
2022-11-10T11:58:12.763Z,3.23
2022-11-10T12:01:10.350Z,2.73
2022-11-10T12:03:47.245Z,2.50
2022-11-10T12:06:22.411Z,3.10
2022-11-10T12:09:00.970Z,2.60
2022-11-10T12:11:49.876Z,2.53
2022-11-10T12:14:50.483Z,2.60
2022-11-10T12:17:32.417Z,2.50
2022-11-10T12:20:04.087Z,2.90
2022-11-10T12:22:52.062Z,2.57
2022-11-10T12:25:21.468Z,2.17
2022-11-10T12:27:55.988Z,2.90
2022-11-10T12:30:23.008Z,2.20
2022-11-10T12:33:04.544Z,2.33
2022-11-10T12:35:43.216Z,1.90
2022-11-10T12:38:20.212Z,3.20
2022-11-10T12:40:51.961Z,2.80
2022-11-10T12:43:55.454Z,2.60
2022-11-10T12:46:22.154Z,2.70
2022-11-10T12:49:02.089Z,2.70
2022-11-10T12:51:42.625Z,2.80
2022-11-10T12:54:16.810Z,2.53
2022-11-10T12:56:58.241Z,2.30
2022-11-10T12:59:29.803Z,2.77
2022-11-10T13:02:01.480Z,2.67
2022-11-10T13:04:28.457Z,2.27
2022-11-10T13:07:08.855Z,2.10
2022-11-10T13:09:42.637Z,2.17
2022-11-10T13:12:26.007Z,1.80
2022-11-10T13:14:52.746Z,2.70
2022-11-10T13:17:28.642Z,2.13
2022-11-10T13:20:05.272Z,2.50
2022-11-10T13:22:44.283Z,2.27
2022-11-10T13:25:35.919Z,1.87
2022-11-10T13:28:03.079Z,2.33
2022-11-10T13:30:41.637Z,2.37
2022-11-10T13:33:23.355Z,2.73
2022-11-10T13:35:55.495Z,2.73
2022-11-10T13:38:41.450Z,1.83
2022-11-10T13:41:21.696Z,1.93
2022-11-10T13:43:54.837Z,2.57
2022-11-10T13:46:33.874Z,2.43
2022-11-10T13:49:15.147Z,2.10
2022-11-10T13:51:50.632Z,3.10
2022-11-10T13:54:44.408Z,1.77
2022-11-10T13:57:23.411Z,2.00
2022-11-10T13:59:55.534Z,1.90
2022-11-10T14:02:34.384Z,1.97
2022-11-10T14:05:01.766Z,2.50
2022-11-10T14:07:34.941Z,3.07
2022-11-10T14:10:10.812Z,2.60
2022-11-10T14:12:37.257Z,2.13
2022-11-10T14:15:17.976Z,2.20
2022-11-10T14:17:50.175Z,1.87
2022-11-10T14:20:46.059Z,2.10
2022-11-10T14:23:26.368Z,2.40
2022-11-10T14:26:00.401Z,2.27
2022-11-10T14:28:29.422Z,2.23
2022-11-10T14:30:57.073Z,2.00
2022-11-10T14:33:25.850Z,2.10
2022-11-10T14:35:55.347Z,2.50
2022-11-10T14:38:26.545Z,1.83
2022-11-10T14:40:59.068Z,2.33
2022-11-10T14:43:43.927Z,2.63
2022-11-10T14:46:14.975Z,2.00
2022-11-10T14:48:41.483Z,1.80
2022-11-10T14:51:13.052Z,1.40
2022-11-10T14:53:47.529Z,2.10
2022-11-10T14:56:17.247Z,4.33
2022-11-10T14:58:46.180Z,3.20
2022-11-10T15:01:34.250Z,2.47
2022-11-10T15:04:03.759Z,2.70
2022-11-10T15:06:30.992Z,2.30
2022-11-10T15:08:57.807Z,3.80
2022-11-10T15:11:51.421Z,4.53
2022-11-10T15:14:40.720Z,3.30
2022-11-10T15:17:09.853Z,2.60
2022-11-10T15:19:39.199Z,3.10
2022-11-10T15:22:34.799Z,2.70
2022-11-10T15:25:10.418Z,2.27
2022-11-10T15:27:37.594Z,1.83
2022-11-10T15:30:23.654Z,1.90
2022-11-10T15:32:51.521Z,2.57
2022-11-10T15:35:24.067Z,2.03
2022-11-10T15:38:09.225Z,2.07
2022-11-10T15:40:44.454Z,2.50
2022-11-10T15:43:14.035Z,3.93
2022-11-10T15:45:43.422Z,2.63
2022-11-10T15:48:16.206Z,2.90
2022-11-10T15:50:46.240Z,1.77
2022-11-10T15:53:18.756Z,2.27
2022-11-10T15:55:45.543Z,2.23
2022-11-10T15:58:14.299Z,2.33
2022-11-10T16:00:40.816Z,2.63
2022-11-10T16:03:11.191Z,2.70
2022-11-10T16:05:41.305Z,2.23
2022-11-10T16:08:22.161Z,2.10
2022-11-10T16:10:51.873Z,2.33
2022-11-10T16:13:24.008Z,2.17
2022-11-10T16:15:51.066Z,2.90
2022-11-10T16:18:21.840Z,2.60
2022-11-10T16:20:50.140Z,2.63
2022-11-10T16:23:17.382Z,2.87
2022-11-10T16:25:45.322Z,2.80
2022-11-10T16:28:16.307Z,3.10
2022-11-10T16:30:43.228Z,3.77
2022-11-10T16:33:15.003Z,3.53
2022-11-10T16:35:42.141Z,3.30
2022-11-10T16:38:35.630Z,3.63
2022-11-10T16:41:04.030Z,4.27
2022-11-10T16:43:31.534Z,3.87
2022-11-10T16:46:02.255Z,4.33
2022-11-10T16:48:31.697Z,3.50
2022-11-10T16:51:00.639Z,3.93
2022-11-10T16:53:29.985Z,3.47
2022-11-10T16:55:57.071Z,3.40
2022-11-10T16:58:30.091Z,2.60
2022-11-10T17:01:01.340Z,2.33
2022-11-10T17:03:33.590Z,2.40
2022-11-10T17:06:00.471Z,2.90
2022-11-10T17:08:30.093Z,3.10
2022-11-10T17:10:57.161Z,3.47
2022-11-10T17:13:24.286Z,2.90
2022-11-10T17:15:53.709Z,2.17
2022-11-10T17:18:24.344Z,2.53
2022-11-10T17:20:52.731Z,2.30
2022-11-10T17:23:22.748Z,2.50
2022-11-10T17:25:50.615Z,2.70
2022-11-10T17:28:18.841Z,2.50
2022-11-10T17:30:45.639Z,2.70
2022-11-10T17:33:13.320Z,2.67
2022-11-10T17:35:50.754Z,2.40
2022-11-10T17:38:29.507Z,2.90
2022-11-10T17:40:56.148Z,2.90
2022-11-10T17:43:26.756Z,3.00
2022-11-10T17:45:53.404Z,3.20
2022-11-10T17:48:20.030Z,3.60
2022-11-10T17:50:47.083Z,3.03
2022-11-10T17:53:30.218Z,2.50
2022-11-10T17:55:56.775Z,2.57
2022-11-10T17:58:23.372Z,1.93
2022-11-10T18:00:50.116Z,1.90
2022-11-10T18:03:19.096Z,2.10
2022-11-10T18:05:46.057Z,2.60
2022-11-10T18:08:14.279Z,3.70
2022-11-10T18:10:42.735Z,4.33
2022-11-10T18:13:10.630Z,4.70
2022-11-10T18:15:37.608Z,4.30
2022-11-10T18:18:04.257Z,4.20
2022-11-10T18:20:30.754Z,4.20
2022-11-10T18:22:57.264Z,4.53
2022-11-10T18:25:23.752Z,4.30
2022-11-10T18:27:50.752Z,3.70
2022-11-10T18:30:18.305Z,3.33
2022-11-10T18:32:45.065Z,3.00
2022-11-10T18:35:11.508Z,2.77
2022-11-10T18:37:39.266Z,2.10
2022-11-10T18:40:07.771Z,2.30
2022-11-10T18:42:34.711Z,2.23
2022-11-10T18:45:01.411Z,2.30
2022-11-10T18:47:28.006Z,2.20
2022-11-10T18:49:54.486Z,1.87
2022-11-10T18:52:20.920Z,2.30
2022-11-10T18:54:47.766Z,2.50
2022-11-10T18:57:16.648Z,2.57
2022-11-10T18:59:43.295Z,2.40
2022-11-10T19:02:12.291Z,2.63
2022-11-10T19:04:39.156Z,2.13
2022-11-10T19:07:06.432Z,2.90
2022-11-10T19:09:33.485Z,2.10
2022-11-10T19:11:59.976Z,2.17
2022-11-10T19:14:26.432Z,2.70
2022-11-10T19:16:53.031Z,2.53
2022-11-10T19:19:19.523Z,2.67
2022-11-10T19:21:46.002Z,2.67
2022-11-10T19:24:18.158Z,2.40
2022-11-10T19:26:52.586Z,2.43
2022-11-10T19:29:19.313Z,2.50
2022-11-10T19:31:46.588Z,2.70
2022-11-10T19:34:13.092Z,2.77
2022-11-10T19:36:39.590Z,2.70
2022-11-10T19:39:06.643Z,2.60
2022-11-10T19:41:33.069Z,3.13
2022-11-10T19:44:00.479Z,2.77
2022-11-10T19:46:29.666Z,2.53
2022-11-10T19:48:57.139Z,3.00
2022-11-10T19:51:25.334Z,2.57
2022-11-10T19:54:05.010Z,2.73
2022-11-10T19:56:34.570Z,3.10
2022-11-10T19:59:01.827Z,2.77
2022-11-10T20:01:31.687Z,3.13
2022-11-10T20:04:00.048Z,2.50
2022-11-10T20:06:26.634Z,2.80
2022-11-10T20:08:53.094Z,2.40
2022-11-10T20:11:25.876Z,2.90
2022-11-10T20:13:55.522Z,3.03
2022-11-10T20:16:22.399Z,2.53
2022-11-10T20:18:49.320Z,3.20
2022-11-10T20:21:18.858Z,3.00
2022-11-10T20:23:45.352Z,2.87
2022-11-10T20:26:16.262Z,2.57
2022-11-10T20:28:44.172Z,2.63
2022-11-10T20:31:16.205Z,2.97
2022-11-10T20:33:43.145Z,2.63
2022-11-10T20:36:20.328Z,3.10
2022-11-10T20:38:48.720Z,2.63
2022-11-10T20:41:19.454Z,2.80
2022-11-10T20:43:47.008Z,3.50
2022-11-10T20:46:40.383Z,3.03
2022-11-10T20:49:04.979Z,3.00
2022-11-10T20:51:31.444Z,2.70
2022-11-10T20:54:00.073Z,3.97
2022-11-10T20:56:29.643Z,3.27
2022-11-10T20:58:57.193Z,3.17
2022-11-10T21:01:23.875Z,2.80
2022-11-10T21:03:50.730Z,2.80
2022-11-10T21:06:17.514Z,2.70
2022-11-10T21:08:44.224Z,3.00
2022-11-10T21:11:11.100Z,2.77
2022-11-10T21:13:38.038Z,2.80
2022-11-10T21:16:06.164Z,3.10
2022-11-10T21:18:36.909Z,3.30
2022-11-10T21:21:05.489Z,2.50
2022-11-10T21:23:32.321Z,3.27
2022-11-10T21:26:00.658Z,2.90
2022-11-10T21:28:27.575Z,2.73
2022-11-10T21:31:03.655Z,3.53
2022-11-10T21:33:30.235Z,3.07
2022-11-10T21:35:56.758Z,2.80
2022-11-10T21:38:23.294Z,3.17
2022-11-10T21:40:49.815Z,3.20
2022-11-10T21:43:16.337Z,3.43
2022-11-10T21:45:42.876Z,3.43
2022-11-10T21:48:09.361Z,3.10
2022-11-10T21:50:35.931Z,3.30
2022-11-10T21:53:07.097Z,3.90
2022-11-10T21:55:33.680Z,3.20
2022-11-10T21:58:00.720Z,3.30
2022-11-10T22:00:27.804Z,3.50
2022-11-10T22:02:58.949Z,3.67
2022-11-10T22:05:25.717Z,3.60
2022-11-10T22:07:52.262Z,3.37
2022-11-10T22:10:37.952Z,3.50
2022-11-10T22:13:23.808Z,3.03
2022-11-10T22:16:08.788Z,3.07
2022-11-10T22:18:38.435Z,4.53
2022-11-10T22:21:05.776Z,3.57
2022-11-10T22:23:52.034Z,3.80
2022-11-10T22:26:19.248Z,3.43
2022-11-10T22:28:46.420Z,3.33
2022-11-10T22:31:13.287Z,3.80
2022-11-10T22:33:42.476Z,3.40
2022-11-10T22:36:11.652Z,4.00
2022-11-10T22:38:41.026Z,3.70
2022-11-10T22:41:31.654Z,3.80
2022-11-10T22:44:04.012Z,4.10
2022-11-10T22:46:46.185Z,4.03
2022-11-10T22:49:16.383Z,3.93
2022-11-10T22:51:45.172Z,4.30
2022-11-10T22:54:17.656Z,4.30
2022-11-10T22:56:45.105Z,4.20
2022-11-10T22:59:12.615Z,4.37
2022-11-10T23:01:40.753Z,4.53
2022-11-10T23:04:07.291Z,4.50
2022-11-10T23:06:33.829Z,4.77
2022-11-10T23:09:00.758Z,4.87
2022-11-10T23:11:30.240Z,4.50
2022-11-10T23:13:56.844Z,5.00
2022-11-10T23:16:26.552Z,4.97
2022-11-10T23:18:54.767Z,4.27
2022-11-10T23:21:24.259Z,4.33
2022-11-10T23:23:51.442Z,4.53
2022-11-10T23:26:20.920Z,4.53
2022-11-10T23:28:47.788Z,4.73
2022-11-10T23:31:17.139Z,4.57
2022-11-10T23:33:45.292Z,4.87
2022-11-10T23:36:13.407Z,4.70
2022-11-10T23:38:40.687Z,4.93
2022-11-10T23:41:10.119Z,4.80
2022-11-10T23:43:36.604Z,4.30
2022-11-10T23:46:07.412Z,4.80
2022-11-10T23:48:35.185Z,4.47
2022-11-10T23:51:01.824Z,4.73
2022-11-10T23:53:28.763Z,4.70
2022-11-10T23:56:21.677Z,4.30
2022-11-10T23:58:48.146Z,4.53
